Pagina principale
METAR-TAF:

METAR-TAF

Aeroporti :

Aeroporto di Nal'čik

Nal'čik, Russia

latitudine: 43-30-46N, longitudine: 043-38-12E, altezza: 445 m

Osservazione

Il bollettino è stato emesso 18 minuti fa, alle 19:00 UTC
Vento 4 kt da sud/sud-ovest
Temperature 23°C
Umidità 65%
Pressione 1017 hPa
Visibilità 10 km o più
Nuvoloso

METAR: URMN 101900Z 20002MPS 9999 BKN/// 23/16 Q1017 R24/////// NOSIG RMK QFE726

Ora: 23:18 (19:18 UTC)

Previsione

Il bollettino è stato emesso 2 ore e 18 minuti fa, alle 17:00 UTC
Previsione valida dal 10 alle 18 UTC al 11 alle 03 UTC
Vento 6 kt da ovest/sud-ovest
Visibilità 10 km o più
Nuvoloso ad un'altezza di 2000 ft

TAF: URMN 101700Z 1018/1103 24003MPS 9999 BKN020

Osservazioni e previsioni meteorologiche di più di 4000 aeroporti (messaggi METAR e TAF).

Le stazioni disponibili sono rappresentate dai dischi gialli e rossi sulla carta.

Puntare il mouse per vedere il nome della stazione.

Clicca sopra per visualizzare le osservazioni e previsioni meteorologiche.

Per cambiare la mappa : fare clic sui pulsanti verdi con una croce nera per ingrandire, il pulsante verde con un trattino per diminuire, o sulla freccia verde per le mappe adiacenti.


METAR-TAF: